Terminal Aerodrome Forecast
Issued by NWS Miami, FL

Home | Current Version | Previous Version | Text Only | Print | Product List | Glossary On
Versions: 1 2 3 4 5 6 7 8 9 10 11 12 13 14 15 16 17 18 19 20 21 22 23 24 25 26
000
FTUS42 KMFL 230926 AAB
TAFFLL
TAF AMD
KFLL 230926Z 2309/2406 22015G25KT P6SM VCTS SCT025CB BKN060 BKN100
     FM231200 26015G25KT P6SM SCT040 BKN050 BKN250
     FM231800 28018G28KT P6SM FEW030 SCT100 BKN250
     FM240000 29012G20KT P6SM FEW050 SCT250=

USA.gov is the U.S. government's official web portal to all federal, state and local government web resources and services.